岡山グライダークラブ活動状況掲示板

岡山グライダークラブ
岡山市浦安南町639-1 岡南飛行場
 使用機:シャイベ式 SF25C型 ファルケ   JA2330
      ヴァレンティン式17E型 タイフーン  JA2342
 練習日:毎日曜日  クラブルーム:電話 086-265-1810
この掲示板は岡山グライダークラブの活動状況をお知らせする掲示板です。
!!!この掲示板は投稿規制をしています。!!!
クラブ関連各種情報は 岡山グライダークラブクラブルーム      を       .
  ブリーフイング情報は  岡山グライダークラブブリーフィングルーム  をご覧下さい。 .
※写真はクリックすると拡大して見ることが出来ます。
岡南飛行場へのアクセス等は 岡南飛行場管理事務所 をご覧ください。
クラブの ホームページ ができました。

!!!当クラブの見学等を希望される方は こちら をご覧ください!!!

 
02月21日
by OGC at 2021/2/21(日) 12:35:01 No.20210221123012  削除コメント
1024 x 768 x 70,957バイト
No.1

02月21日
本日のリモート参加者
  会員      13名
  その他      0名


@本日の様子






METAR
RJBK 210000Z VRB01KT SKC 08/06 Q1016 A3002
RJOB 210000Z 24009KT CAVOK 12/08 Q1015
RJOT 210000Z 25017KT 9999 FEW030 16/03 Q1016
RJOA 210000Z 27005KT 230V310 CAVOK 13/06 Q1016
TAF
RJOB 202308Z 2100/2206 24010KT 9999 FEW030
RJOT 202309Z 2101/2206 26010KT 9999 FEW030
RJOA 202306Z 2100/2206 24006KT 9999 FEW030

本日、第5回リモートブリーフィングを開催しました。
次回、2月28日は関西圏の緊急事態宣言の解除が近いことから、岡山県在住の方による機体整備他、フライト準備を行います。
また、第6回リモートブリーフィングも10:00から開催予定です。

集合 10:00 解散    10:30

本日のフライトはありません。

    << 戻る || ホームページ || 最新の掲示板へ